createdAt,value
2023-04-23T00:09:59.706Z,3.8
2023-04-23T00:25:09.184Z,4.9
2023-04-23T00:40:18.685Z,3.7
2023-04-23T00:55:28.250Z,4.2
2023-04-23T01:10:37.238Z,9.3
2023-04-23T01:25:45.890Z,12.3
2023-04-23T01:40:55.397Z,15.7
2023-04-23T01:56:06.642Z,17.1
2023-04-23T02:11:16.303Z,18.9
2023-04-23T02:26:26.548Z,20.7
2023-04-23T02:41:36.177Z,21
2023-04-23T02:56:46.507Z,21.6
2023-04-23T03:11:56.053Z,22.4
2023-04-23T03:27:08.268Z,23.4
2023-04-23T03:42:18.049Z,24.8
2023-04-23T03:57:42.117Z,28.7
2023-04-23T04:12:51.817Z,29.7
2023-04-23T04:28:01.585Z,29.7
2023-04-23T04:43:11.806Z,26.3
2023-04-23T04:58:21.434Z,29.1
2023-04-23T05:13:30.671Z,28.4
2023-04-23T05:28:40.494Z,26.9
2023-04-23T05:43:49.902Z,28.2
2023-04-23T05:58:59.324Z,26.7
2023-04-23T06:14:08.151Z,25.5
2023-04-23T06:29:17.271Z,26.5
2023-04-23T06:44:26.935Z,26.5
2023-04-23T06:59:37.504Z,25.7
2023-04-23T07:14:47.854Z,26.8
2023-04-23T07:29:57.734Z,29.4
2023-04-23T07:45:08.549Z,28.9
2023-04-23T08:00:18.644Z,27.2
2023-04-23T08:15:28.345Z,24.7
2023-04-23T08:30:37.991Z,23.5
2023-04-23T08:45:47.541Z,17.3
2023-04-23T09:00:58.739Z,15.1
2023-04-23T09:16:08.885Z,16.4
2023-04-23T09:31:19.113Z,13.6
2023-04-23T09:46:32.492Z,11.9
2023-04-23T10:01:43.326Z,12
2023-04-23T10:16:54.080Z,8.8
2023-04-23T10:32:03.950Z,8.3
2023-04-23T10:47:13.519Z,7.4
2023-04-23T11:02:24.216Z,7.2
2023-04-23T11:17:35.001Z,8.1
2023-04-23T11:32:45.387Z,8.3
2023-04-23T11:47:56.019Z,6.5
2023-04-23T12:03:06.943Z,6.2
2023-04-23T12:18:18.068Z,6
2023-04-23T12:33:28.047Z,5.4
2023-04-23T12:48:38.827Z,3.7
2023-04-23T13:03:49.186Z,3.5
2023-04-23T13:18:59.461Z,3.3
2023-04-23T13:34:08.988Z,3.7
2023-04-23T13:49:17.287Z,4.7
2023-04-23T14:04:26.952Z,3.6
2023-04-23T14:19:37.612Z,2.4
2023-04-23T14:34:47.215Z,2.7
2023-04-23T14:49:56.834Z,2.6
2023-04-23T15:05:08.092Z,2.3
2023-04-23T15:20:19.534Z,2.2
2023-04-23T15:35:31.902Z,1.9
2023-04-23T15:50:44.004Z,2.2
2023-04-23T16:05:54.408Z,2.6
2023-04-23T16:21:02.251Z,2.1
2023-04-23T16:36:11.394Z,5.7
2023-04-23T16:51:19.314Z,2.5
2023-04-23T17:06:28.885Z,2
2023-04-23T17:21:37.885Z,1.9
2023-04-23T17:36:46.493Z,3.4
2023-04-23T17:51:55.696Z,3.2
2023-04-23T18:07:04.629Z,2.7
2023-04-23T18:22:14.233Z,2.9
2023-04-23T18:37:23.924Z,2.7
2023-04-23T18:52:33.384Z,3.5
2023-04-23T19:07:42.814Z,3.7
2023-04-23T19:22:52.457Z,3.5
2023-04-23T19:38:02.311Z,3.8
2023-04-23T19:53:11.291Z,5.3
2023-04-23T20:08:20.851Z,4.8
2023-04-23T20:23:30.330Z,4.4
2023-04-23T20:38:40.498Z,5.3
2023-04-23T20:53:49.923Z,5.6
2023-04-23T21:08:59.612Z,5.4
2023-04-23T21:24:09.756Z,6.5
2023-04-23T21:39:19.166Z,4.8
2023-04-23T21:54:28.273Z,4.7
2023-04-23T22:09:38.725Z,4.7
2023-04-23T22:24:48.330Z,3.2
2023-04-23T22:39:57.543Z,2.8
2023-04-23T22:55:06.981Z,1.8
2023-04-23T23:10:16.455Z,1.6
2023-04-23T23:25:25.446Z,1.4
2023-04-23T23:40:34.878Z,1.7
2023-04-23T23:55:44.525Z,1.5
